<?xml version="1.0" encoding="UTF-8" standalone="no" ?><gpx xmlns="http://www.topografix.com/GPX/1/1" xmlns:gpxx="http://www.garmin.com/xmlschemas/GpxExtensions/v3" xmlns:gpxtpx="http://www.garmin.com/xmlschemas/TrackPointExtension/v1" creator="Foretrex 301" version="1.1" xmlns:xsi="http://www.w3.org/2001/XMLSchema-instance" xsi:schemaLocation="http://www.topografix.com/GPX/1/1 http://www.topografix.com/GPX/1/1/gpx.xsd http://www.garmin.com/xmlschemas/GpxExtensions/v3 http://www.garmin.com/xmlschemas/GpxExtensions/v3/GpxExtensionsv3.xsd"><metadata><link href="http://www.garmin.com"><text>Garmin International</text></link><time>2010-12-15T16:06:35Z</time></metadata><trk><name>ACTIVE LOG: 15 DEC 2010 09:54</name><trkseg><trkpt lat="51.938515" lon="-2.028897"><ele>201.53</ele><time>2010-12-15T09:54:32Z</time></trkpt><trkpt lat="51.938565" lon="-2.028808"><ele>202.01</ele><time>2010-12-15T09:55:29Z</time></trkpt><trkpt lat="51.938569" lon="-2.028807"><ele>202.49</ele><time>2010-12-15T09:55:52Z</time></trkpt><trkpt lat="51.938520" lon="-2.028742"><ele>203.94</ele><time>2010-12-15T09:56:07Z</time></trkpt><trkpt lat="51.938498" lon="-2.028768"><ele>203.46</ele><time>2010-12-15T09:56:43Z</time></trkpt><trkpt lat="51.938499" lon="-2.028764"><ele>203.94</ele><time>2010-12-15T09:57:59Z</time></trkpt><trkpt lat="51.938502" lon="-2.028752"><ele>205.86</ele><time>2010-12-15T09:58:38Z</time></trkpt><trkpt lat="51.938502" lon="-2.028734"><ele>206.82</ele><time>2010-12-15T09:59:33Z</time></trkpt><trkpt lat="51.938493" lon="-2.028741"><ele>205.86</ele><time>2010-12-15T10:01:17Z</time></trkpt><trkpt lat="51.938423" lon="-2.028799"><ele>206.82</ele><time>2010-12-15T10:01:32Z</time></trkpt><trkpt lat="51.938375" lon="-2.029027"><ele>204.42</ele><time>2010-12-15T10:01:47Z</time></trkpt><trkpt lat="51.938359" lon="-2.029052"><ele>203.46</ele><time>2010-12-15T10:01:50Z</time></trkpt><trkpt lat="51.938308" lon="-2.028825"><ele>203.94</ele><time>2010-12-15T10:02:05Z</time></trkpt><trkpt lat="51.938292" lon="-2.028583"><ele>206.34</ele><time>2010-12-15T10:02:20Z</time></trkpt><trkpt lat="51.938293" lon="-2.028575"><ele>206.34</ele><time>2010-12-15T10:02:21Z</time></trkpt><trkpt lat="51.938305" lon="-2.028490"><ele>206.82</ele><time>2010-12-15T10:02:27Z</time></trkpt><trkpt lat="51.938305" lon="-2.028208"><ele>210.19</ele><time>2010-12-15T10:02:43Z</time></trkpt><trkpt lat="51.938283" lon="-2.028036"><ele>211.63</ele><time>2010-12-15T10:02:58Z</time></trkpt><trkpt lat="51.938301" lon="-2.027962"><ele>213.07</ele><time>2010-12-15T10:03:06Z</time></trkpt><trkpt lat="51.938321" lon="-2.027778"><ele>215.95</ele><time>2010-12-15T10:03:19Z</time></trkpt><trkpt lat="51.938310" lon="-2.027570"><ele>216.91</ele><time>2010-12-15T10:03:32Z</time></trkpt><trkpt lat="51.938315" lon="-2.027358"><ele>218.84</ele><time>2010-12-15T10:03:47Z</time></trkpt><trkpt lat="51.938303" lon="-2.027197"><ele>220.76</ele><time>2010-12-15T10:04:01Z</time></trkpt><trkpt lat="51.938323" lon="-2.027049"><ele>222.20</ele><time>2010-12-15T10:04:14Z</time></trkpt><trkpt lat="51.938359" lon="-2.026893"><ele>223.64</ele><time>2010-12-15T10:04:29Z</time></trkpt><trkpt lat="51.938382" lon="-2.026809"><ele>225.09</ele><time>2010-12-15T10:04:38Z</time></trkpt><trkpt lat="51.938419" lon="-2.026662"><ele>226.53</ele><time>2010-12-15T10:04:51Z</time></trkpt><trkpt lat="51.938436" lon="-2.026540"><ele>229.41</ele><time>2010-12-15T10:05:04Z</time></trkpt><trkpt lat="51.938460" lon="-2.026436"><ele>230.85</ele><time>2010-12-15T10:05:16Z</time></trkpt><trkpt lat="51.938472" lon="-2.026318"><ele>233.74</ele><time>2010-12-15T10:05:31Z</time></trkpt><trkpt lat="51.938494" lon="-2.026194"><ele>236.14</ele><time>2010-12-15T10:05:46Z</time></trkpt><trkpt lat="51.938534" lon="-2.026061"><ele>238.54</ele><time>2010-12-15T10:06:00Z</time></trkpt><trkpt lat="51.938563" lon="-2.025941"><ele>240.47</ele><time>2010-12-15T10:06:14Z</time></trkpt><trkpt lat="51.938564" lon="-2.025817"><ele>241.91</ele><time>2010-12-15T10:06:26Z</time></trkpt><trkpt lat="51.938562" lon="-2.025685"><ele>244.31</ele><time>2010-12-15T10:06:37Z</time></trkpt><trkpt lat="51.938532" lon="-2.025574"><ele>244.79</ele><time>2010-12-15T10:06:51Z</time></trkpt><trkpt lat="51.938533" lon="-2.025564"><ele>244.79</ele><time>2010-12-15T10:07:18Z</time></trkpt><trkpt lat="51.938549" lon="-2.025391"><ele>246.72</ele><time>2010-12-15T10:07:31Z</time></trkpt><trkpt lat="51.938521" lon="-2.025254"><ele>248.64</ele><time>2010-12-15T10:07:43Z</time></trkpt><trkpt lat="51.938422" lon="-2.025148"><ele>250.56</ele><time>2010-12-15T10:07:57Z</time></trkpt><trkpt lat="51.938383" lon="-2.025126"><ele>250.56</ele><time>2010-12-15T10:08:02Z</time></trkpt><trkpt lat="51.938244" lon="-2.025109"><ele>252.48</ele><time>2010-12-15T10:08:18Z</time></trkpt><trkpt lat="51.938135" lon="-2.025145"><ele>253.44</ele><time>2010-12-15T10:08:33Z</time></trkpt><trkpt lat="51.938066" lon="-2.025155"><ele>253.93</ele><time>2010-12-15T10:08:47Z</time></trkpt><trkpt lat="51.937944" lon="-2.025158"><ele>255.37</ele><time>2010-12-15T10:09:02Z</time></trkpt><trkpt lat="51.937814" lon="-2.025165"><ele>256.81</ele><time>2010-12-15T10:09:18Z</time></trkpt><trkpt lat="51.937695" lon="-2.025181"><ele>258.25</ele><time>2010-12-15T10:09:33Z</time></trkpt><trkpt lat="51.937567" lon="-2.025218"><ele>259.69</ele><time>2010-12-15T10:09:49Z</time></trkpt><trkpt lat="51.937429" lon="-2.025279"><ele>261.14</ele><time>2010-12-15T10:10:06Z</time></trkpt><trkpt lat="51.937287" lon="-2.025268"><ele>262.10</ele><time>2010-12-15T10:10:23Z</time></trkpt><trkpt lat="51.937141" lon="-2.025294"><ele>263.06</ele><time>2010-12-15T10:10:41Z</time></trkpt><trkpt lat="51.937021" lon="-2.025268"><ele>264.50</ele><time>2010-12-15T10:10:55Z</time></trkpt><trkpt lat="51.936880" lon="-2.025286"><ele>265.94</ele><time>2010-12-15T10:11:11Z</time></trkpt><trkpt lat="51.936776" lon="-2.025322"><ele>266.90</ele><time>2010-12-15T10:11:23Z</time></trkpt><trkpt lat="51.936648" lon="-2.025351"><ele>267.86</ele><time>2010-12-15T10:11:37Z</time></trkpt><trkpt lat="51.936496" lon="-2.025388"><ele>269.31</ele><time>2010-12-15T10:11:52Z</time></trkpt><trkpt lat="51.936346" lon="-2.025446"><ele>270.75</ele><time>2010-12-15T10:12:08Z</time></trkpt><trkpt lat="51.936171" lon="-2.025482"><ele>272.67</ele><time>2010-12-15T10:12:27Z</time></trkpt><trkpt lat="51.936030" lon="-2.025502"><ele>273.63</ele><time>2010-12-15T10:12:43Z</time></trkpt><trkpt lat="51.935893" lon="-2.025485"><ele>274.59</ele><time>2010-12-15T10:12:59Z</time></trkpt><trkpt lat="51.935737" lon="-2.025427"><ele>277.00</ele><time>2010-12-15T10:13:17Z</time></trkpt><trkpt lat="51.935572" lon="-2.025363"><ele>278.44</ele><time>2010-12-15T10:13:36Z</time></trkpt><trkpt lat="51.935443" lon="-2.025289"><ele>279.88</ele><time>2010-12-15T10:13:52Z</time></trkpt><trkpt lat="51.935287" lon="-2.025237"><ele>280.36</ele><time>2010-12-15T10:14:09Z</time></trkpt><trkpt lat="51.935278" lon="-2.025234"><ele>280.84</ele><time>2010-12-15T10:14:10Z</time></trkpt><trkpt lat="51.935143" lon="-2.025246"><ele>282.77</ele><time>2010-12-15T10:14:25Z</time></trkpt><trkpt lat="51.935072" lon="-2.025239"><ele>283.25</ele><time>2010-12-15T10:14:33Z</time></trkpt><trkpt lat="51.935012" lon="-2.025288"><ele>283.73</ele><time>2010-12-15T10:14:41Z</time></trkpt><trkpt lat="51.934970" lon="-2.025279"><ele>284.21</ele><time>2010-12-15T10:14:58Z</time></trkpt><trkpt lat="51.934943" lon="-2.025263"><ele>284.21</ele><time>2010-12-15T10:15:25Z</time></trkpt><trkpt lat="51.934796" lon="-2.025177"><ele>286.61</ele><time>2010-12-15T10:15:42Z</time></trkpt><trkpt lat="51.934642" lon="-2.025099"><ele>287.57</ele><time>2010-12-15T10:15:58Z</time></trkpt><trkpt lat="51.934498" lon="-2.025024"><ele>289.01</ele><time>2010-12-15T10:16:14Z</time></trkpt><trkpt lat="51.934351" lon="-2.024889"><ele>291.42</ele><time>2010-12-15T10:16:32Z</time></trkpt><trkpt lat="51.934207" lon="-2.024754"><ele>293.34</ele><time>2010-12-15T10:16:51Z</time></trkpt><trkpt lat="51.934094" lon="-2.024631"><ele>294.30</ele><time>2010-12-15T10:17:08Z</time></trkpt><trkpt lat="51.934003" lon="-2.024482"><ele>296.22</ele><time>2010-12-15T10:17:24Z</time></trkpt><trkpt lat="51.933986" lon="-2.024466"><ele>296.22</ele><time>2010-12-15T10:17:28Z</time></trkpt><trkpt lat="51.933900" lon="-2.024490"><ele>298.15</ele><time>2010-12-15T10:17:38Z</time></trkpt><trkpt lat="51.933796" lon="-2.024562"><ele>298.15</ele><time>2010-12-15T10:17:51Z</time></trkpt><trkpt lat="51.933652" lon="-2.024707"><ele>300.07</ele><time>2010-12-15T10:18:09Z</time></trkpt><trkpt lat="51.933585" lon="-2.024814"><ele>301.03</ele><time>2010-12-15T10:18:23Z</time></trkpt><trkpt lat="51.933581" lon="-2.024806"><ele>301.03</ele><time>2010-12-15T10:18:24Z</time></trkpt><trkpt lat="51.933423" lon="-2.024644"><ele>302.95</ele><time>2010-12-15T10:18:41Z</time></trkpt><trkpt lat="51.933265" lon="-2.024548"><ele>303.91</ele><time>2010-12-15T10:18:57Z</time></trkpt><trkpt lat="51.933107" lon="-2.024459"><ele>305.36</ele><time>2010-12-15T10:19:15Z</time></trkpt><trkpt lat="51.932953" lon="-2.024429"><ele>306.80</ele><time>2010-12-15T10:19:31Z</time></trkpt><trkpt lat="51.932890" lon="-2.024447"><ele>307.28</ele><time>2010-12-15T10:19:37Z</time></trkpt><trkpt lat="51.932779" lon="-2.024597"><ele>308.24</ele><time>2010-12-15T10:19:53Z</time></trkpt><trkpt lat="51.932790" lon="-2.024656"><ele>307.76</ele><time>2010-12-15T10:20:06Z</time></trkpt><trkpt lat="51.932803" lon="-2.024667"><ele>307.76</ele><time>2010-12-15T10:20:26Z</time></trkpt><trkpt lat="51.932809" lon="-2.024662"><ele>307.76</ele><time>2010-12-15T10:20:57Z</time></trkpt><trkpt lat="51.932804" lon="-2.024646"><ele>308.24</ele><time>2010-12-15T10:21:18Z</time></trkpt><trkpt lat="51.932696" lon="-2.024571"><ele>308.24</ele><time>2010-12-15T10:21:33Z</time></trkpt><trkpt lat="51.932464" lon="-2.024440"><ele>306.80</ele><time>2010-12-15T10:21:55Z</time></trkpt><trkpt lat="51.932197" lon="-2.024453"><ele>307.28</ele><time>2010-12-15T10:22:17Z</time></trkpt><trkpt lat="51.931959" lon="-2.024592"><ele>306.32</ele><time>2010-12-15T10:22:41Z</time></trkpt><trkpt lat="51.931867" lon="-2.024601"><ele>305.84</ele><time>2010-12-15T10:22:51Z</time></trkpt><trkpt lat="51.931672" lon="-2.024361"><ele>309.20</ele><time>2010-12-15T10:23:15Z</time></trkpt><trkpt lat="51.931460" lon="-2.024290"><ele>310.16</ele><time>2010-12-15T10:23:38Z</time></trkpt><trkpt lat="51.931359" lon="-2.024283"><ele>310.64</ele><time>2010-12-15T10:23:49Z</time></trkpt><trkpt lat="51.931109" lon="-2.024302"><ele>309.68</ele><time>2010-12-15T10:24:13Z</time></trkpt><trkpt lat="51.930863" lon="-2.024336"><ele>308.72</ele><time>2010-12-15T10:24:37Z</time></trkpt><trkpt lat="51.930649" lon="-2.024330"><ele>310.16</ele><time>2010-12-15T10:25:00Z</time></trkpt><trkpt lat="51.930440" lon="-2.024327"><ele>310.64</ele><time>2010-12-15T10:25:22Z</time></trkpt><trkpt lat="51.930246" lon="-2.024303"><ele>310.64</ele><time>2010-12-15T10:25:45Z</time></trkpt><trkpt lat="51.930083" lon="-2.024269"><ele>308.72</ele><time>2010-12-15T10:26:03Z</time></trkpt><trkpt lat="51.930056" lon="-2.024258"><ele>308.72</ele><time>2010-12-15T10:26:06Z</time></trkpt><trkpt lat="51.929996" lon="-2.024230"><ele>309.20</ele><time>2010-12-15T10:26:13Z</time></trkpt><trkpt lat="51.929961" lon="-2.024224"><ele>308.72</ele><time>2010-12-15T10:26:17Z</time></trkpt><trkpt lat="51.929812" lon="-2.024139"><ele>307.76</ele><time>2010-12-15T10:26:33Z</time></trkpt><trkpt lat="51.929575" lon="-2.024049"><ele>305.84</ele><time>2010-12-15T10:26:56Z</time></trkpt><trkpt lat="51.929517" lon="-2.024030"><ele>306.32</ele><time>2010-12-15T10:27:02Z</time></trkpt><trkpt lat="51.929367" lon="-2.023971"><ele>305.84</ele><time>2010-12-15T10:27:17Z</time></trkpt><trkpt lat="51.929188" lon="-2.023907"><ele>305.84</ele><time>2010-12-15T10:27:34Z</time></trkpt><trkpt lat="51.929050" lon="-2.023851"><ele>306.32</ele><time>2010-12-15T10:27:50Z</time></trkpt><trkpt lat="51.928899" lon="-2.023736"><ele>304.88</ele><time>2010-12-15T10:28:06Z</time></trkpt><trkpt lat="51.928835" lon="-2.023702"><ele>304.39</ele><time>2010-12-15T10:28:13Z</time></trkpt><trkpt lat="51.928708" lon="-2.023465"><ele>304.39</ele><time>2010-12-15T10:28:32Z</time></trkpt><trkpt lat="51.928616" lon="-2.023223"><ele>304.88</ele><time>2010-12-15T10:28:50Z</time></trkpt><trkpt lat="51.928528" lon="-2.022935"><ele>304.39</ele><time>2010-12-15T10:29:09Z</time></trkpt><trkpt lat="51.928413" lon="-2.022738"><ele>303.91</ele><time>2010-12-15T10:29:25Z</time></trkpt><trkpt lat="51.928293" lon="-2.022511"><ele>302.95</ele><time>2010-12-15T10:29:44Z</time></trkpt><trkpt lat="51.928159" lon="-2.022316"><ele>303.43</ele><time>2010-12-15T10:30:01Z</time></trkpt><trkpt lat="51.928020" lon="-2.022131"><ele>302.95</ele><time>2010-12-15T10:30:18Z</time></trkpt><trkpt lat="51.927885" lon="-2.022006"><ele>302.47</ele><time>2010-12-15T10:30:34Z</time></trkpt><trkpt lat="51.927861" lon="-2.022005"><ele>302.47</ele><time>2010-12-15T10:30:46Z</time></trkpt><trkpt lat="51.927752" lon="-2.021849"><ele>302.95</ele><time>2010-12-15T10:31:01Z</time></trkpt><trkpt lat="51.927634" lon="-2.021681"><ele>303.43</ele><time>2010-12-15T10:31:17Z</time></trkpt><trkpt lat="51.927519" lon="-2.021514"><ele>303.43</ele><time>2010-12-15T10:31:32Z</time></trkpt><trkpt lat="51.927367" lon="-2.021357"><ele>301.99</ele><time>2010-12-15T10:31:50Z</time></trkpt><trkpt lat="51.927239" lon="-2.021216"><ele>301.99</ele><time>2010-12-15T10:32:05Z</time></trkpt><trkpt lat="51.927094" lon="-2.021027"><ele>301.03</ele><time>2010-12-15T10:32:23Z</time></trkpt><trkpt lat="51.926979" lon="-2.020848"><ele>300.55</ele><time>2010-12-15T10:32:39Z</time></trkpt><trkpt lat="51.926839" lon="-2.020643"><ele>300.07</ele><time>2010-12-15T10:32:57Z</time></trkpt><trkpt lat="51.926717" lon="-2.020473"><ele>299.11</ele><time>2010-12-15T10:33:12Z</time></trkpt><trkpt lat="51.926586" lon="-2.020254"><ele>298.15</ele><time>2010-12-15T10:33:30Z</time></trkpt><trkpt lat="51.926486" lon="-2.020052"><ele>297.18</ele><time>2010-12-15T10:33:45Z</time></trkpt><trkpt lat="51.926361" lon="-2.019841"><ele>296.22</ele><time>2010-12-15T10:34:01Z</time></trkpt><trkpt lat="51.926337" lon="-2.019816"><ele>295.26</ele><time>2010-12-15T10:34:13Z</time></trkpt><trkpt lat="51.926220" lon="-2.019587"><ele>296.22</ele><time>2010-12-15T10:34:29Z</time></trkpt><trkpt lat="51.926092" lon="-2.019407"><ele>295.74</ele><time>2010-12-15T10:34:45Z</time></trkpt><trkpt lat="51.925991" lon="-2.019300"><ele>295.26</ele><time>2010-12-15T10:34:58Z</time></trkpt><trkpt lat="51.925908" lon="-2.019127"><ele>295.26</ele><time>2010-12-15T10:35:13Z</time></trkpt><trkpt lat="51.925807" lon="-2.018917"><ele>295.74</ele><time>2010-12-15T10:35:30Z</time></trkpt><trkpt lat="51.925684" lon="-2.018655"><ele>296.70</ele><time>2010-12-15T10:35:50Z</time></trkpt><trkpt lat="51.925565" lon="-2.018353"><ele>297.67</ele><time>2010-12-15T10:36:11Z</time></trkpt><trkpt lat="51.925481" lon="-2.018122"><ele>298.63</ele><time>2010-12-15T10:36:28Z</time></trkpt><trkpt lat="51.925354" lon="-2.017913"><ele>299.11</ele><time>2010-12-15T10:36:47Z</time></trkpt><trkpt lat="51.925283" lon="-2.017744"><ele>300.07</ele><time>2010-12-15T10:37:03Z</time></trkpt><trkpt lat="51.925177" lon="-2.017333"><ele>303.43</ele><time>2010-12-15T10:37:30Z</time></trkpt><trkpt lat="51.925037" lon="-2.016986"><ele>304.88</ele><time>2010-12-15T10:37:57Z</time></trkpt><trkpt lat="51.924884" lon="-2.016677"><ele>304.88</ele><time>2010-12-15T10:38:21Z</time></trkpt><trkpt lat="51.924753" lon="-2.016360"><ele>305.84</ele><time>2010-12-15T10:38:47Z</time></trkpt><trkpt lat="51.924688" lon="-2.016198"><ele>305.36</ele><time>2010-12-15T10:39:05Z</time></trkpt><trkpt lat="51.924629" lon="-2.016092"><ele>305.84</ele><time>2010-12-15T10:39:20Z</time></trkpt><trkpt lat="51.924554" lon="-2.015952"><ele>306.32</ele><time>2010-12-15T10:39:31Z</time></trkpt><trkpt lat="51.924440" lon="-2.015568"><ele>309.20</ele><time>2010-12-15T10:39:57Z</time></trkpt><trkpt lat="51.924289" lon="-2.015214"><ele>310.16</ele><time>2010-12-15T10:40:23Z</time></trkpt><trkpt lat="51.924172" lon="-2.014774"><ele>308.24</ele><time>2010-12-15T10:40:50Z</time></trkpt><trkpt lat="51.924086" lon="-2.014437"><ele>310.64</ele><time>2010-12-15T10:41:13Z</time></trkpt><trkpt lat="51.923954" lon="-2.014041"><ele>315.45</ele><time>2010-12-15T10:41:45Z</time></trkpt><trkpt lat="51.923811" lon="-2.013726"><ele>317.85</ele><time>2010-12-15T10:42:10Z</time></trkpt><trkpt lat="51.923648" lon="-2.013368"><ele>320.74</ele><time>2010-12-15T10:42:41Z</time></trkpt><trkpt lat="51.923593" lon="-2.013131"><ele>322.18</ele><time>2010-12-15T10:42:59Z</time></trkpt><trkpt lat="51.923482" lon="-2.012821"><ele>324.10</ele><time>2010-12-15T10:43:21Z</time></trkpt><trkpt lat="51.923375" lon="-2.012592"><ele>323.14</ele><time>2010-12-15T10:43:41Z</time></trkpt><trkpt lat="51.923273" lon="-2.012374"><ele>323.14</ele><time>2010-12-15T10:43:58Z</time></trkpt><trkpt lat="51.923124" lon="-2.012087"><ele>323.14</ele><time>2010-12-15T10:44:23Z</time></trkpt><trkpt lat="51.922988" lon="-2.011785"><ele>323.14</ele><time>2010-12-15T10:44:52Z</time></trkpt><trkpt lat="51.922917" lon="-2.011640"><ele>323.62</ele><time>2010-12-15T10:45:09Z</time></trkpt><trkpt lat="51.922783" lon="-2.011322"><ele>324.58</ele><time>2010-12-15T10:45:36Z</time></trkpt><trkpt lat="51.922630" lon="-2.011010"><ele>325.06</ele><time>2010-12-15T10:46:04Z</time></trkpt><trkpt lat="51.922515" lon="-2.010830"><ele>326.50</ele><time>2010-12-15T10:46:27Z</time></trkpt><trkpt lat="51.922412" lon="-2.010653"><ele>326.50</ele><time>2010-12-15T10:46:45Z</time></trkpt><trkpt lat="51.922256" lon="-2.010393"><ele>324.58</ele><time>2010-12-15T10:47:09Z</time></trkpt><trkpt lat="51.922164" lon="-2.010193"><ele>323.62</ele><time>2010-12-15T10:47:26Z</time></trkpt><trkpt lat="51.922104" lon="-2.010079"><ele>322.66</ele><time>2010-12-15T10:47:41Z</time></trkpt><trkpt lat="51.922035" lon="-2.009975"><ele>322.66</ele><time>2010-12-15T10:48:09Z</time></trkpt><trkpt lat="51.921997" lon="-2.009903"><ele>323.14</ele><time>2010-12-15T10:48:21Z</time></trkpt><trkpt lat="51.921980" lon="-2.009935"><ele>324.10</ele><time>2010-12-15T10:48:35Z</time></trkpt><trkpt lat="51.922011" lon="-2.010038"><ele>324.58</ele><time>2010-12-15T10:48:51Z</time></trkpt><trkpt lat="51.921936" lon="-2.010103"><ele>321.22</ele><time>2010-12-15T10:49:08Z</time></trkpt><trkpt lat="51.921855" lon="-2.010035"><ele>321.22</ele><time>2010-12-15T10:49:24Z</time></trkpt><trkpt lat="51.921839" lon="-2.010131"><ele>319.78</ele><time>2010-12-15T10:49:43Z</time></trkpt><trkpt lat="51.921836" lon="-2.010084"><ele>320.26</ele><time>2010-12-15T10:49:58Z</time></trkpt><trkpt lat="51.921846" lon="-2.010074"><ele>320.26</ele><time>2010-12-15T10:50:13Z</time></trkpt><trkpt lat="51.921852" lon="-2.010064"><ele>321.22</ele><time>2010-12-15T10:50:34Z</time></trkpt><trkpt lat="51.921854" lon="-2.010065"><ele>321.70</ele><time>2010-12-15T10:51:01Z</time></trkpt><trkpt lat="51.921859" lon="-2.010074"><ele>320.74</ele><time>2010-12-15T10:55:24Z</time></trkpt><trkpt lat="51.921860" lon="-2.010074"><ele>321.22</ele><time>2010-12-15T10:56:44Z</time></trkpt><trkpt lat="51.921860" lon="-2.010075"><ele>321.22</ele><time>2010-12-15T10:58:08Z</time></trkpt><trkpt lat="51.921855" lon="-2.010075"><ele>320.74</ele><time>2010-12-15T10:59:23Z</time></trkpt><trkpt lat="51.921856" lon="-2.010076"><ele>322.18</ele><time>2010-12-15T11:00:20Z</time></trkpt><trkpt lat="51.921860" lon="-2.010084"><ele>322.18</ele><time>2010-12-15T11:00:40Z</time></trkpt><trkpt lat="51.921865" lon="-2.010160"><ele>322.66</ele><time>2010-12-15T11:01:02Z</time></trkpt><trkpt lat="51.921863" lon="-2.010229"><ele>323.62</ele><time>2010-12-15T11:01:21Z</time></trkpt><trkpt lat="51.921869" lon="-2.010256"><ele>324.58</ele><time>2010-12-15T11:01:51Z</time></trkpt><trkpt lat="51.921884" lon="-2.010237"><ele>326.50</ele><time>2010-12-15T11:02:33Z</time></trkpt><trkpt lat="51.921911" lon="-2.010196"><ele>326.99</ele><time>2010-12-15T11:02:36Z</time></trkpt><trkpt lat="51.922025" lon="-2.010098"><ele>327.47</ele><time>2010-12-15T11:02:47Z</time></trkpt><trkpt lat="51.922056" lon="-2.010067"><ele>327.47</ele><time>2010-12-15T11:02:51Z</time></trkpt><trkpt lat="51.922159" lon="-2.010015"><ele>328.91</ele><time>2010-12-15T11:03:03Z</time></trkpt><trkpt lat="51.922338" lon="-2.010023"><ele>329.87</ele><time>2010-12-15T11:03:20Z</time></trkpt><trkpt lat="51.922528" lon="-2.010049"><ele>329.39</ele><time>2010-12-15T11:03:37Z</time></trkpt><trkpt lat="51.922816" lon="-2.010091"><ele>330.35</ele><time>2010-12-15T11:04:00Z</time></trkpt><trkpt lat="51.923056" lon="-2.010147"><ele>330.35</ele><time>2010-12-15T11:04:19Z</time></trkpt><trkpt lat="51.923197" lon="-2.010200"><ele>330.35</ele><time>2010-12-15T11:04:31Z</time></trkpt><trkpt lat="51.923351" lon="-2.010293"><ele>330.35</ele><time>2010-12-15T11:04:45Z</time></trkpt><trkpt lat="51.923551" lon="-2.010436"><ele>329.87</ele><time>2010-12-15T11:05:03Z</time></trkpt><trkpt lat="51.923756" lon="-2.010566"><ele>329.39</ele><time>2010-12-15T11:05:22Z</time></trkpt><trkpt lat="51.923968" lon="-2.010816"><ele>326.99</ele><time>2010-12-15T11:05:45Z</time></trkpt><trkpt lat="51.924074" lon="-2.010924"><ele>326.02</ele><time>2010-12-15T11:05:57Z</time></trkpt><trkpt lat="51.924283" lon="-2.011092"><ele>326.02</ele><time>2010-12-15T11:06:16Z</time></trkpt><trkpt lat="51.924529" lon="-2.011308"><ele>324.10</ele><time>2010-12-15T11:06:38Z</time></trkpt><trkpt lat="51.924765" lon="-2.011513"><ele>323.14</ele><time>2010-12-15T11:07:02Z</time></trkpt><trkpt lat="51.924950" lon="-2.011739"><ele>321.70</ele><time>2010-12-15T11:07:23Z</time></trkpt><trkpt lat="51.925139" lon="-2.011971"><ele>320.26</ele><time>2010-12-15T11:07:44Z</time></trkpt><trkpt lat="51.925373" lon="-2.012151"><ele>317.85</ele><time>2010-12-15T11:08:05Z</time></trkpt><trkpt lat="51.925573" lon="-2.012340"><ele>315.93</ele><time>2010-12-15T11:08:25Z</time></trkpt><trkpt lat="51.925673" lon="-2.012430"><ele>315.45</ele><time>2010-12-15T11:08:40Z</time></trkpt><trkpt lat="51.925820" lon="-2.012546"><ele>313.53</ele><time>2010-12-15T11:08:56Z</time></trkpt><trkpt lat="51.925989" lon="-2.012689"><ele>312.57</ele><time>2010-12-15T11:09:16Z</time></trkpt><trkpt lat="51.926176" lon="-2.012838"><ele>312.09</ele><time>2010-12-15T11:09:35Z</time></trkpt><trkpt lat="51.926390" lon="-2.012987"><ele>311.12</ele><time>2010-12-15T11:09:55Z</time></trkpt><trkpt lat="51.926591" lon="-2.013098"><ele>311.60</ele><time>2010-12-15T11:10:15Z</time></trkpt><trkpt lat="51.926818" lon="-2.013233"><ele>311.12</ele><time>2010-12-15T11:10:36Z</time></trkpt><trkpt lat="51.927032" lon="-2.013366"><ele>310.16</ele><time>2010-12-15T11:10:57Z</time></trkpt><trkpt lat="51.927184" lon="-2.013444"><ele>310.16</ele><time>2010-12-15T11:11:13Z</time></trkpt><trkpt lat="51.927363" lon="-2.013538"><ele>310.64</ele><time>2010-12-15T11:11:31Z</time></trkpt><trkpt lat="51.927532" lon="-2.013632"><ele>310.16</ele><time>2010-12-15T11:11:48Z</time></trkpt><trkpt lat="51.927723" lon="-2.013732"><ele>309.68</ele><time>2010-12-15T11:12:08Z</time></trkpt><trkpt lat="51.927950" lon="-2.013855"><ele>308.24</ele><time>2010-12-15T11:12:29Z</time></trkpt><trkpt lat="51.928160" lon="-2.013977"><ele>307.76</ele><time>2010-12-15T11:12:49Z</time></trkpt><trkpt lat="51.928382" lon="-2.014090"><ele>307.28</ele><time>2010-12-15T11:13:09Z</time></trkpt><trkpt lat="51.928595" lon="-2.014246"><ele>306.80</ele><time>2010-12-15T11:13:30Z</time></trkpt><trkpt lat="51.928762" lon="-2.014390"><ele>306.80</ele><time>2010-12-15T11:13:46Z</time></trkpt><trkpt lat="51.928937" lon="-2.014552"><ele>306.80</ele><time>2010-12-15T11:14:04Z</time></trkpt><trkpt lat="51.929162" lon="-2.014712"><ele>306.80</ele><time>2010-12-15T11:14:25Z</time></trkpt><trkpt lat="51.929372" lon="-2.014898"><ele>306.32</ele><time>2010-12-15T11:14:46Z</time></trkpt><trkpt lat="51.929538" lon="-2.015047"><ele>304.88</ele><time>2010-12-15T11:15:04Z</time></trkpt><trkpt lat="51.929719" lon="-2.015229"><ele>303.91</ele><time>2010-12-15T11:15:23Z</time></trkpt><trkpt lat="51.929820" lon="-2.015348"><ele>303.91</ele><time>2010-12-15T11:15:36Z</time></trkpt><trkpt lat="51.929986" lon="-2.015575"><ele>301.99</ele><time>2010-12-15T11:15:55Z</time></trkpt><trkpt lat="51.930152" lon="-2.015778"><ele>301.03</ele><time>2010-12-15T11:16:15Z</time></trkpt><trkpt lat="51.930327" lon="-2.015960"><ele>300.55</ele><time>2010-12-15T11:16:35Z</time></trkpt><trkpt lat="51.930497" lon="-2.016105"><ele>299.59</ele><time>2010-12-15T11:16:53Z</time></trkpt><trkpt lat="51.930692" lon="-2.016180"><ele>299.59</ele><time>2010-12-15T11:17:10Z</time></trkpt><trkpt lat="51.930898" lon="-2.016218"><ele>300.07</ele><time>2010-12-15T11:17:29Z</time></trkpt><trkpt lat="51.931059" lon="-2.016251"><ele>300.07</ele><time>2010-12-15T11:17:44Z</time></trkpt><trkpt lat="51.931244" lon="-2.016327"><ele>299.59</ele><time>2010-12-15T11:18:02Z</time></trkpt><trkpt lat="51.931403" lon="-2.016398"><ele>299.11</ele><time>2010-12-15T11:18:19Z</time></trkpt><trkpt lat="51.931628" lon="-2.016410"><ele>300.55</ele><time>2010-12-15T11:18:39Z</time></trkpt><trkpt lat="51.931864" lon="-2.016491"><ele>300.55</ele><time>2010-12-15T11:19:01Z</time></trkpt><trkpt lat="51.932058" lon="-2.016579"><ele>299.11</ele><time>2010-12-15T11:19:21Z</time></trkpt><trkpt lat="51.932260" lon="-2.016702"><ele>298.63</ele><time>2010-12-15T11:19:41Z</time></trkpt><trkpt lat="51.932431" lon="-2.016805"><ele>297.67</ele><time>2010-12-15T11:19:58Z</time></trkpt><trkpt lat="51.932694" lon="-2.016999"><ele>296.22</ele><time>2010-12-15T11:20:22Z</time></trkpt><trkpt lat="51.932885" lon="-2.017214"><ele>295.74</ele><time>2010-12-15T11:20:43Z</time></trkpt><trkpt lat="51.933090" lon="-2.017444"><ele>294.78</ele><time>2010-12-15T11:21:05Z</time></trkpt><trkpt lat="51.933115" lon="-2.017478"><ele>294.78</ele><time>2010-12-15T11:21:09Z</time></trkpt><trkpt lat="51.933150" lon="-2.017501"><ele>293.82</ele><time>2010-12-15T11:21:13Z</time></trkpt><trkpt lat="51.933327" lon="-2.017745"><ele>293.34</ele><time>2010-12-15T11:21:35Z</time></trkpt><trkpt lat="51.933473" lon="-2.017935"><ele>292.38</ele><time>2010-12-15T11:21:52Z</time></trkpt><trkpt lat="51.933571" lon="-2.018114"><ele>289.49</ele><time>2010-12-15T11:22:06Z</time></trkpt><trkpt lat="51.933711" lon="-2.018341"><ele>286.13</ele><time>2010-12-15T11:22:26Z</time></trkpt><trkpt lat="51.933844" lon="-2.018556"><ele>284.69</ele><time>2010-12-15T11:22:43Z</time></trkpt><trkpt lat="51.933979" lon="-2.018770"><ele>279.88</ele><time>2010-12-15T11:23:02Z</time></trkpt><trkpt lat="51.933984" lon="-2.018789"><ele>279.88</ele><time>2010-12-15T11:23:04Z</time></trkpt><trkpt lat="51.934136" lon="-2.019011"><ele>277.96</ele><time>2010-12-15T11:23:25Z</time></trkpt><trkpt lat="51.934281" lon="-2.019179"><ele>275.56</ele><time>2010-12-15T11:23:43Z</time></trkpt><trkpt lat="51.934509" lon="-2.019329"><ele>278.92</ele><time>2010-12-15T11:24:07Z</time></trkpt><trkpt lat="51.934656" lon="-2.019412"><ele>280.36</ele><time>2010-12-15T11:24:22Z</time></trkpt><trkpt lat="51.934808" lon="-2.019396"><ele>281.80</ele><time>2010-12-15T11:24:38Z</time></trkpt><trkpt lat="51.935018" lon="-2.019331"><ele>283.25</ele><time>2010-12-15T11:24:58Z</time></trkpt><trkpt lat="51.935268" lon="-2.019252"><ele>285.17</ele><time>2010-12-15T11:25:24Z</time></trkpt><trkpt lat="51.935368" lon="-2.019222"><ele>285.65</ele><time>2010-12-15T11:25:36Z</time></trkpt><trkpt lat="51.935394" lon="-2.019194"><ele>284.69</ele><time>2010-12-15T11:25:39Z</time></trkpt><trkpt lat="51.935580" lon="-2.019099"><ele>285.65</ele><time>2010-12-15T11:25:57Z</time></trkpt><trkpt lat="51.935687" lon="-2.019056"><ele>286.61</ele><time>2010-12-15T11:26:08Z</time></trkpt><trkpt lat="51.935720" lon="-2.019049"><ele>287.09</ele><time>2010-12-15T11:26:11Z</time></trkpt><trkpt lat="51.935933" lon="-2.018960"><ele>289.97</ele><time>2010-12-15T11:26:31Z</time></trkpt><trkpt lat="51.936082" lon="-2.018868"><ele>290.46</ele><time>2010-12-15T11:26:48Z</time></trkpt><trkpt lat="51.936162" lon="-2.018808"><ele>289.97</ele><time>2010-12-15T11:26:58Z</time></trkpt><trkpt lat="51.936168" lon="-2.018776"><ele>290.46</ele><time>2010-12-15T11:27:00Z</time></trkpt><trkpt lat="51.936266" lon="-2.018657"><ele>291.90</ele><time>2010-12-15T11:27:15Z</time></trkpt><trkpt lat="51.936295" lon="-2.018626"><ele>291.90</ele><time>2010-12-15T11:27:20Z</time></trkpt><trkpt lat="51.936378" lon="-2.018583"><ele>291.90</ele><time>2010-12-15T11:27:30Z</time></trkpt><trkpt lat="51.936489" lon="-2.018485"><ele>292.86</ele><time>2010-12-15T11:27:44Z</time></trkpt><trkpt lat="51.936511" lon="-2.018473"><ele>292.86</ele><time>2010-12-15T11:27:47Z</time></trkpt><trkpt lat="51.936529" lon="-2.018470"><ele>292.38</ele><time>2010-12-15T11:27:50Z</time></trkpt><trkpt lat="51.936713" lon="-2.018340"><ele>292.38</ele><time>2010-12-15T11:28:11Z</time></trkpt><trkpt lat="51.936844" lon="-2.018267"><ele>292.86</ele><time>2010-12-15T11:28:25Z</time></trkpt><trkpt lat="51.936994" lon="-2.018172"><ele>292.86</ele><time>2010-12-15T11:28:42Z</time></trkpt><trkpt lat="51.937103" lon="-2.018067"><ele>296.22</ele><time>2010-12-15T11:28:59Z</time></trkpt><trkpt lat="51.937244" lon="-2.017955"><ele>298.63</ele><time>2010-12-15T11:29:16Z</time></trkpt><trkpt lat="51.937387" lon="-2.017877"><ele>299.11</ele><time>2010-12-15T11:29:33Z</time></trkpt><trkpt lat="51.937497" lon="-2.017807"><ele>298.63</ele><time>2010-12-15T11:29:47Z</time></trkpt><trkpt lat="51.937703" lon="-2.017770"><ele>297.67</ele><time>2010-12-15T11:30:07Z</time></trkpt><trkpt lat="51.937894" lon="-2.017787"><ele>297.18</ele><time>2010-12-15T11:30:26Z</time></trkpt><trkpt lat="51.938097" lon="-2.017854"><ele>295.26</ele><time>2010-12-15T11:30:45Z</time></trkpt><trkpt lat="51.938305" lon="-2.017911"><ele>294.78</ele><time>2010-12-15T11:31:04Z</time></trkpt><trkpt lat="51.938540" lon="-2.017978"><ele>292.86</ele><time>2010-12-15T11:31:25Z</time></trkpt><trkpt lat="51.938746" lon="-2.018034"><ele>292.38</ele><time>2010-12-15T11:31:43Z</time></trkpt><trkpt lat="51.938966" lon="-2.018097"><ele>291.90</ele><time>2010-12-15T11:32:02Z</time></trkpt><trkpt lat="51.939162" lon="-2.018125"><ele>290.46</ele><time>2010-12-15T11:32:19Z</time></trkpt><trkpt lat="51.939343" lon="-2.018117"><ele>288.53</ele><time>2010-12-15T11:32:35Z</time></trkpt><trkpt lat="51.939440" lon="-2.018083"><ele>288.05</ele><time>2010-12-15T11:32:45Z</time></trkpt><trkpt lat="51.939540" lon="-2.018075"><ele>288.53</ele><time>2010-12-15T11:33:00Z</time></trkpt><trkpt lat="51.939542" lon="-2.018053"><ele>288.53</ele><time>2010-12-15T11:33:15Z</time></trkpt><trkpt lat="51.939574" lon="-2.018042"><ele>288.05</ele><time>2010-12-15T11:33:31Z</time></trkpt><trkpt lat="51.939606" lon="-2.018060"><ele>288.05</ele><time>2010-12-15T11:33:37Z</time></trkpt><trkpt lat="51.939799" lon="-2.018065"><ele>287.09</ele><time>2010-12-15T11:33:52Z</time></trkpt><trkpt lat="51.939968" lon="-2.018066"><ele>287.09</ele><time>2010-12-15T11:34:07Z</time></trkpt><trkpt lat="51.940146" lon="-2.018097"><ele>284.69</ele><time>2010-12-15T11:34:21Z</time></trkpt><trkpt lat="51.940333" lon="-2.018134"><ele>283.25</ele><time>2010-12-15T11:34:36Z</time></trkpt><trkpt lat="51.940476" lon="-2.018052"><ele>283.73</ele><time>2010-12-15T11:34:50Z</time></trkpt><trkpt lat="51.940540" lon="-2.018031"><ele>284.21</ele><time>2010-12-15T11:35:01Z</time></trkpt><trkpt lat="51.940638" lon="-2.017996"><ele>282.77</ele><time>2010-12-15T11:35:09Z</time></trkpt><trkpt lat="51.940732" lon="-2.018095"><ele>280.84</ele><time>2010-12-15T11:35:22Z</time></trkpt><trkpt lat="51.940767" lon="-2.018215"><ele>279.40</ele><time>2010-12-15T11:35:35Z</time></trkpt><trkpt lat="51.940774" lon="-2.018279"><ele>277.96</ele><time>2010-12-15T11:35:46Z</time></trkpt><trkpt lat="51.940876" lon="-2.018308"><ele>277.48</ele><time>2010-12-15T11:35:53Z</time></trkpt><trkpt lat="51.941192" lon="-2.018192"><ele>274.11</ele><time>2010-12-15T11:36:16Z</time></trkpt><trkpt lat="51.941474" lon="-2.018081"><ele>272.19</ele><time>2010-12-15T11:36:38Z</time></trkpt><trkpt lat="51.941598" lon="-2.018038"><ele>271.23</ele><time>2010-12-15T11:36:51Z</time></trkpt><trkpt lat="51.941805" lon="-2.017958"><ele>270.75</ele><time>2010-12-15T11:37:09Z</time></trkpt><trkpt lat="51.941998" lon="-2.017900"><ele>269.79</ele><time>2010-12-15T11:37:27Z</time></trkpt><trkpt lat="51.942186" lon="-2.017852"><ele>268.35</ele><time>2010-12-15T11:37:44Z</time></trkpt><trkpt lat="51.942377" lon="-2.017779"><ele>267.86</ele><time>2010-12-15T11:38:02Z</time></trkpt><trkpt lat="51.942619" lon="-2.017731"><ele>265.46</ele><time>2010-12-15T11:38:24Z</time></trkpt><trkpt lat="51.942729" lon="-2.017680"><ele>263.54</ele><time>2010-12-15T11:38:38Z</time></trkpt><trkpt lat="51.942758" lon="-2.017710"><ele>263.06</ele><time>2010-12-15T11:38:42Z</time></trkpt><trkpt lat="51.942946" lon="-2.017568"><ele>263.54</ele><time>2010-12-15T11:38:59Z</time></trkpt><trkpt lat="51.942973" lon="-2.017584"><ele>263.06</ele><time>2010-12-15T11:39:03Z</time></trkpt><trkpt lat="51.942999" lon="-2.017588"><ele>262.58</ele><time>2010-12-15T11:39:07Z</time></trkpt><trkpt lat="51.943033" lon="-2.017626"><ele>262.58</ele><time>2010-12-15T11:39:15Z</time></trkpt><trkpt lat="51.943070" lon="-2.017529"><ele>264.50</ele><time>2010-12-15T11:39:27Z</time></trkpt><trkpt lat="51.942970" lon="-2.017782"><ele>262.10</ele><time>2010-12-15T11:39:44Z</time></trkpt><trkpt lat="51.942859" lon="-2.018051"><ele>260.65</ele><time>2010-12-15T11:40:02Z</time></trkpt><trkpt lat="51.942744" lon="-2.018285"><ele>258.25</ele><time>2010-12-15T11:40:19Z</time></trkpt><trkpt lat="51.942750" lon="-2.018322"><ele>259.21</ele><time>2010-12-15T11:40:33Z</time></trkpt><trkpt lat="51.942717" lon="-2.018350"><ele>260.17</ele><time>2010-12-15T11:40:54Z</time></trkpt><trkpt lat="51.942531" lon="-2.018685"><ele>259.21</ele><time>2010-12-15T11:41:12Z</time></trkpt><trkpt lat="51.942332" lon="-2.019039"><ele>258.73</ele><time>2010-12-15T11:41:34Z</time></trkpt><trkpt lat="51.942282" lon="-2.019102"><ele>258.25</ele><time>2010-12-15T11:41:39Z</time></trkpt><trkpt lat="51.942265" lon="-2.019129"><ele>258.25</ele><time>2010-12-15T11:41:41Z</time></trkpt><trkpt lat="51.942195" lon="-2.019279"><ele>257.77</ele><time>2010-12-15T11:41:56Z</time></trkpt><trkpt lat="51.942111" lon="-2.019447"><ele>257.77</ele><time>2010-12-15T11:42:12Z</time></trkpt><trkpt lat="51.941935" lon="-2.019766"><ele>254.89</ele><time>2010-12-15T11:42:32Z</time></trkpt><trkpt lat="51.941771" lon="-2.019914"><ele>254.41</ele><time>2010-12-15T11:42:48Z</time></trkpt><trkpt lat="51.941561" lon="-2.020123"><ele>253.93</ele><time>2010-12-15T11:43:07Z</time></trkpt><trkpt lat="51.941391" lon="-2.020376"><ele>252.00</ele><time>2010-12-15T11:43:25Z</time></trkpt><trkpt lat="51.941375" lon="-2.020418"><ele>252.00</ele><time>2010-12-15T11:43:38Z</time></trkpt><trkpt lat="51.941369" lon="-2.020418"><ele>252.00</ele><time>2010-12-15T11:43:56Z</time></trkpt><trkpt lat="51.941139" lon="-2.020733"><ele>250.56</ele><time>2010-12-15T11:44:17Z</time></trkpt><trkpt lat="51.940954" lon="-2.021004"><ele>246.23</ele><time>2010-12-15T11:44:36Z</time></trkpt><trkpt lat="51.940839" lon="-2.021187"><ele>243.35</ele><time>2010-12-15T11:44:53Z</time></trkpt><trkpt lat="51.940811" lon="-2.021243"><ele>242.39</ele><time>2010-12-15T11:45:07Z</time></trkpt><trkpt lat="51.940732" lon="-2.021569"><ele>237.10</ele><time>2010-12-15T11:45:23Z</time></trkpt><trkpt lat="51.940727" lon="-2.021585"><ele>237.10</ele><time>2010-12-15T11:45:24Z</time></trkpt><trkpt lat="51.940693" lon="-2.021662"><ele>235.66</ele><time>2010-12-15T11:45:31Z</time></trkpt><trkpt lat="51.940634" lon="-2.021926"><ele>231.81</ele><time>2010-12-15T11:45:46Z</time></trkpt><trkpt lat="51.940542" lon="-2.022252"><ele>231.33</ele><time>2010-12-15T11:46:02Z</time></trkpt><trkpt lat="51.940497" lon="-2.022579"><ele>227.97</ele><time>2010-12-15T11:46:21Z</time></trkpt><trkpt lat="51.940433" lon="-2.022831"><ele>226.53</ele><time>2010-12-15T11:46:36Z</time></trkpt><trkpt lat="51.940295" lon="-2.023116"><ele>226.05</ele><time>2010-12-15T11:46:55Z</time></trkpt><trkpt lat="51.940115" lon="-2.023429"><ele>224.12</ele><time>2010-12-15T11:47:18Z</time></trkpt><trkpt lat="51.939987" lon="-2.023742"><ele>222.20</ele><time>2010-12-15T11:47:37Z</time></trkpt><trkpt lat="51.939901" lon="-2.023966"><ele>222.68</ele><time>2010-12-15T11:47:52Z</time></trkpt><trkpt lat="51.939788" lon="-2.024300"><ele>223.64</ele><time>2010-12-15T11:48:11Z</time></trkpt><trkpt lat="51.939708" lon="-2.024669"><ele>225.09</ele><time>2010-12-15T11:48:32Z</time></trkpt><trkpt lat="51.939614" lon="-2.025043"><ele>224.61</ele><time>2010-12-15T11:48:52Z</time></trkpt><trkpt lat="51.939558" lon="-2.025303"><ele>224.61</ele><time>2010-12-15T11:49:06Z</time></trkpt><trkpt lat="51.939514" lon="-2.025611"><ele>225.57</ele><time>2010-12-15T11:49:23Z</time></trkpt><trkpt lat="51.939479" lon="-2.025996"><ele>227.01</ele><time>2010-12-15T11:49:44Z</time></trkpt><trkpt lat="51.939452" lon="-2.026353"><ele>226.53</ele><time>2010-12-15T11:50:04Z</time></trkpt><trkpt lat="51.939416" lon="-2.026671"><ele>226.53</ele><time>2010-12-15T11:50:23Z</time></trkpt><trkpt lat="51.939360" lon="-2.026788"><ele>227.01</ele><time>2010-12-15T11:50:35Z</time></trkpt><trkpt lat="51.939334" lon="-2.026812"><ele>226.53</ele><time>2010-12-15T11:50:48Z</time></trkpt><trkpt lat="51.939189" lon="-2.026948"><ele>225.09</ele><time>2010-12-15T11:51:06Z</time></trkpt><trkpt lat="51.939075" lon="-2.027028"><ele>222.68</ele><time>2010-12-15T11:51:19Z</time></trkpt><trkpt lat="51.938928" lon="-2.027085"><ele>221.72</ele><time>2010-12-15T11:51:33Z</time></trkpt><trkpt lat="51.938868" lon="-2.027193"><ele>219.80</ele><time>2010-12-15T11:51:42Z</time></trkpt><trkpt lat="51.938701" lon="-2.027295"><ele>217.88</ele><time>2010-12-15T11:52:00Z</time></trkpt><trkpt lat="51.938525" lon="-2.027441"><ele>215.95</ele><time>2010-12-15T11:52:18Z</time></trkpt><trkpt lat="51.938384" lon="-2.027631"><ele>214.51</ele><time>2010-12-15T11:52:35Z</time></trkpt><trkpt lat="51.938282" lon="-2.027782"><ele>213.55</ele><time>2010-12-15T11:52:47Z</time></trkpt><trkpt lat="51.938255" lon="-2.028126"><ele>212.11</ele><time>2010-12-15T11:53:05Z</time></trkpt><trkpt lat="51.938267" lon="-2.028208"><ele>211.63</ele><time>2010-12-15T11:53:17Z</time></trkpt><trkpt lat="51.938264" lon="-2.028372"><ele>209.70</ele><time>2010-12-15T11:53:33Z</time></trkpt><trkpt lat="51.938289" lon="-2.028645"><ele>209.22</ele><time>2010-12-15T11:53:50Z</time></trkpt><trkpt lat="51.938334" lon="-2.028932"><ele>205.86</ele><time>2010-12-15T11:54:06Z</time></trkpt><trkpt lat="51.938342" lon="-2.029018"><ele>203.94</ele><time>2010-12-15T11:54:11Z</time></trkpt><trkpt lat="51.938376" lon="-2.029068"><ele>204.42</ele><time>2010-12-15T11:54:18Z</time></trkpt><trkpt lat="51.938455" lon="-2.028911"><ele>204.42</ele><time>2010-12-15T11:54:33Z</time></trkpt><trkpt lat="51.938494" lon="-2.028889"><ele>203.94</ele><time>2010-12-15T11:54:45Z</time></trkpt></trkseg></trk></gpx>